APJ322 RJFU-RJFF

Flight info

Callsign APJ322
Flight time 0h 21m
Altitude 15000
Route PEARL IKE
Aircraft A320/M-SDE3FGHIRWY/LB1

Departure

Time 2026-04-20 02:57
Airport Nagasaki Airport (RJFU)

Arrival

Time 2026-04-20 03:19
Airport Fukuoka Airport (RJFF)
Time Latitude Longitude Altitude Speed Heading
2026-04-20 02:34 32.91379 129.92188 13 ft 0 kts 47°
2026-04-20 02:48 32.91367 129.92173 14 ft 4 kts 48°
2026-04-20 02:49 32.91350 129.92149 13 ft 4 kts 50°
2026-04-20 02:49 32.91332 129.92125 12 ft 4 kts 51°
2026-04-20 02:49 32.91316 129.92099 14 ft 4 kts 55°
2026-04-20 02:49 32.91302 129.92072 11 ft 4 kts 68°
2026-04-20 02:50 32.91298 129.92045 14 ft 3 kts 130°
2026-04-20 02:50 32.91300 129.92042 14 ft 0 kts 138°
2026-04-20 02:53 32.91298 129.92044 12 ft 1 kts 138°
2026-04-20 02:53 32.91291 129.92051 12 ft 2 kts 138°
2026-04-20 02:53 32.91278 129.92065 12 ft 3 kts 138°
2026-04-20 02:54 32.91262 129.92082 11 ft 3 kts 137°
2026-04-20 02:54 32.91246 129.92101 11 ft 3 kts 137°
2026-04-20 02:54 32.91211 129.92138 11 ft 10 kts 137°
2026-04-20 02:54 32.91148 129.92206 12 ft 14 kts 138°
2026-04-20 02:55 32.91071 129.92286 9 ft 16 kts 139°
2026-04-20 02:55 32.90983 129.92381 10 ft 17 kts 137°
2026-04-20 02:55 32.90890 129.92476 14 ft 18 kts 137°
2026-04-20 02:55 32.90823 129.92533 13 ft 9 kts 168°
2026-04-20 02:56 32.90778 129.92511 14 ft 5 kts 223°
2026-04-20 02:56 32.90742 129.92461 15 ft 12 kts 233°
2026-04-20 02:56 32.90765 129.92338 15 ft 21 kts 315°
2026-04-20 02:56 32.90961 129.92130 14 ft 71 kts 318°
2026-04-20 02:57 32.91490 129.91565 19 ft 134 kts 318°
2026-04-20 02:57 32.92310 129.90688 92 ft 176 kts 318°
2026-04-20 02:57 32.93253 129.89736 723 ft 178 kts 322°
2026-04-20 02:57 32.94252 129.88850 1436 ft 180 kts 323°
2026-04-20 02:58 32.95295 129.87965 2006 ft 192 kts 323°
2026-04-20 02:58 32.96446 129.86965 2289 ft 219 kts 322°
2026-04-20 02:58 32.97756 129.85800 2597 ft 251 kts 322°
2026-04-20 02:58 32.99217 129.84498 3171 ft 269 kts 322°
2026-04-20 02:59 33.00739 129.83155 4062 ft 274 kts 322°
2026-04-20 02:59 33.02276 129.81821 4960 ft 280 kts 323°
2026-04-20 02:59 33.03870 129.80456 5857 ft 284 kts 323°
2026-04-20 02:59 33.05473 129.79054 6756 ft 287 kts 322°
2026-04-20 03:00 33.07080 129.77629 7663 ft 289 kts 321°
2026-04-20 03:00 33.08692 129.76186 8590 ft 291 kts 321°
2026-04-20 03:00 33.10314 129.74725 9504 ft 293 kts 320°
2026-04-20 03:00 33.11950 129.73269 10356 ft 297 kts 321°
2026-04-20 03:01 33.13676 129.71753 10638 ft 320 kts 321°
2026-04-20 03:01 33.15514 129.70143 10874 ft 342 kts 321°
2026-04-20 03:01 33.17463 129.68435 11460 ft 351 kts 321°
2026-04-20 03:01 33.19438 129.66704 12240 ft 353 kts 321°
2026-04-20 03:02 33.21435 129.64977 13063 ft 355 kts 324°
2026-04-20 03:02 33.23662 129.63664 13842 ft 361 kts 338°
2026-04-20 03:02 33.26137 129.63026 14482 ft 369 kts 352°
2026-04-20 03:02 33.28725 129.63118 14852 ft 376 kts
2026-04-20 03:03 33.31286 129.63856 14942 ft 386 kts 11°
2026-04-20 03:03 33.33953 129.64704 14959 ft 406 kts 11°
2026-04-20 03:03 33.36670 129.65569 14958 ft 412 kts 11°
2026-04-20 03:03 33.39447 129.66454 14954 ft 414 kts 11°
2026-04-20 03:04 33.42230 129.67339 14958 ft 414 kts 11°
2026-04-20 03:04 33.45014 129.68226 14953 ft 414 kts 11°
2026-04-20 03:04 33.47799 129.69110 14954 ft 414 kts 11°
2026-04-20 03:04 33.50585 129.69994 14954 ft 414 kts 11°
2026-04-20 03:05 33.53369 129.70880 14953 ft 414 kts 11°
2026-04-20 03:05 33.56155 129.71766 14953 ft 415 kts 11°
2026-04-20 03:05 33.58943 129.72653 14951 ft 414 kts 11°
2026-04-20 03:05 33.61694 129.73527 14951 ft 415 kts 11°
2026-04-20 03:06 33.64484 129.74411 14953 ft 415 kts 11°
2026-04-20 03:06 33.67226 129.75285 14941 ft 398 kts 11°
2026-04-20 03:06 33.69839 129.76161 14948 ft 386 kts 14°
2026-04-20 03:06 33.72270 129.77522 14949 ft 389 kts 27°
2026-04-20 03:07 33.74423 129.79521 14950 ft 394 kts 40°
2026-04-20 03:07 33.76173 129.82075 14945 ft 400 kts 54°
2026-04-20 03:07 33.77439 129.85063 14938 ft 404 kts 64°
2026-04-20 03:07 33.78542 129.88131 14496 ft 403 kts 64°
2026-04-20 03:08 33.79611 129.91127 14357 ft 376 kts 64°
2026-04-20 03:08 33.80606 129.93917 14227 ft 352 kts 64°
2026-04-20 03:08 33.81557 129.96563 13819 ft 340 kts 64°
2026-04-20 03:08 33.82492 129.99148 13213 ft 334 kts 64°
2026-04-20 03:09 33.83412 130.01695 12567 ft 330 kts 65°
2026-04-20 03:09 33.84299 130.04156 11949 ft 326 kts 65°
2026-04-20 03:09 33.85197 130.06645 11322 ft 322 kts 66°
2026-04-20 03:09 33.86080 130.09100 10710 ft 318 kts 66°
2026-04-20 03:10 33.86954 130.11529 10095 ft 314 kts 67°
2026-04-20 03:10 33.87804 130.13898 9466 ft 310 kts 68°
2026-04-20 03:10 33.88651 130.16265 8823 ft 306 kts 68°
2026-04-20 03:10 33.89466 130.18615 8164 ft 301 kts 73°
2026-04-20 03:11 33.89701 130.21057 7531 ft 291 kts 99°
2026-04-20 03:11 33.89093 130.23319 6900 ft 281 kts 124°
2026-04-20 03:11 33.87820 130.25030 6299 ft 271 kts 147°
2026-04-20 03:11 33.86255 130.26162 5914 ft 255 kts 154°
2026-04-20 03:12 33.84730 130.27154 5579 ft 243 kts 153°
2026-04-20 03:12 33.83287 130.28132 5250 ft 233 kts 153°
2026-04-20 03:12 33.81934 130.29064 4952 ft 222 kts 153°
2026-04-20 03:12 33.80636 130.29958 4703 ft 208 kts 153°
2026-04-20 03:13 33.79429 130.30788 4404 ft 191 kts 153°
2026-04-20 03:13 33.78322 130.31550 4143 ft 174 kts 153°
2026-04-20 03:13 33.77327 130.32234 3923 ft 157 kts 153°
2026-04-20 03:13 33.76425 130.32853 3730 ft 144 kts 153°
2026-04-20 03:14 33.75563 130.33444 3532 ft 142 kts 153°
2026-04-20 03:14 33.74710 130.34029 3356 ft 141 kts 153°
2026-04-20 03:14 33.73861 130.34611 3166 ft 140 kts 153°
2026-04-20 03:14 33.73025 130.35185 2985 ft 140 kts 153°
2026-04-20 03:15 33.72178 130.35766 2797 ft 140 kts 152°
2026-04-20 03:15 33.71331 130.36347 2610 ft 141 kts 152°
2026-04-20 03:15 33.70481 130.36930 2421 ft 140 kts 152°
2026-04-20 03:15 33.69635 130.37510 2238 ft 140 kts 152°
2026-04-20 03:16 33.68788 130.38090 2046 ft 139 kts 151°
2026-04-20 03:16 33.67949 130.38665 1858 ft 139 kts 151°
2026-04-20 03:16 33.67106 130.39241 1637 ft 139 kts 151°
2026-04-20 03:16 33.66276 130.39813 1435 ft 140 kts 151°
2026-04-20 03:17 33.65434 130.40391 1279 ft 140 kts 150°
2026-04-20 03:17 33.64590 130.40973 1090 ft 140 kts 151°
2026-04-20 03:17 33.63744 130.41550 928 ft 140 kts 150°
2026-04-20 03:17 33.62898 130.42129 755 ft 140 kts 150°
2026-04-20 03:18 33.62056 130.42710 587 ft 140 kts 150°
2026-04-20 03:18 33.61212 130.43284 393 ft 139 kts 150°
2026-04-20 03:18 33.60373 130.43857 228 ft 138 kts 150°
2026-04-20 03:18 33.59537 130.44426 53 ft 138 kts 150°
2026-04-20 03:19 33.58790 130.44936 32 ft 97 kts 151°
2026-04-20 03:19 33.58422 130.45196 36 ft 43 kts 138°
2026-04-20 03:19 33.58313 130.45375 33 ft 13 kts 121°
2026-04-20 03:19 33.58303 130.45445 33 ft 7 kts 65°
2026-04-20 03:20 33.58338 130.45469 34 ft 5 kts 353°
2026-04-20 03:20 33.58364 130.45453 34 ft 3 kts 330°
2026-04-20 03:20 33.58379 130.45442 34 ft 2 kts 330°
2026-04-20 03:20 33.58383 130.45439 34 ft 0 kts 330°
2026-04-20 03:21 33.58389 130.45435 34 ft 5 kts 330°
2026-04-20 03:21 33.58453 130.45391 35 ft 13 kts 331°
2026-04-20 03:21 33.58549 130.45326 34 ft 12 kts 330°
2026-04-20 03:21 33.58615 130.45280 33 ft 10 kts 330°
2026-04-20 03:22 33.58669 130.45243 35 ft 8 kts 330°
2026-04-20 03:22 33.58712 130.45213 35 ft 7 kts 331°
2026-04-20 03:22 33.58756 130.45184 33 ft 10 kts 330°
2026-04-20 03:22 33.58850 130.45119 32 ft 18 kts 329°
2026-04-20 03:23 33.58926 130.45068 31 ft 20 kts 330°
2026-04-20 03:23 33.59056 130.44978 27 ft 24 kts 330°
2026-04-20 03:23 33.59256 130.44843 25 ft 23 kts 329°
2026-04-20 03:23 33.59386 130.44754 24 ft 22 kts 330°
2026-04-20 03:24 33.59518 130.44665 27 ft 22 kts 328°
2026-04-20 03:24 33.59643 130.44579 27 ft 21 kts 330°
2026-04-20 03:24 33.59728 130.44523 27 ft 21 kts 333°
2026-04-20 03:24 33.59840 130.44444 26 ft 14 kts 329°
2026-04-20 03:25 33.59919 130.44474 25 ft 12 kts 24°
2026-04-20 03:25 33.59985 130.44463 23 ft 5 kts 19°
2026-04-20 03:25 33.59997 130.44492 24 ft 3 kts 72°
2026-04-20 03:25 33.60007 130.44515 24 ft 1 kts 60°
2026-04-20 03:26 33.60008 130.44516 24 ft 0 kts 60°
2026-04-20 03:26 33.60010 130.44520 24 ft 1 kts 60°
2026-04-20 03:26 33.60010 130.44522 24 ft 0 kts 60°